createdAt,value
2023-01-27T00:01:18.270Z,96755.66
2023-01-27T00:03:46.495Z,96755.88
2023-01-27T00:06:14.763Z,96758.31
2023-01-27T00:08:42.856Z,96754.09
2023-01-27T00:11:28.553Z,96757.94
2023-01-27T00:13:57.197Z,96756.25
2023-01-27T00:16:26.653Z,96753.31
2023-01-27T00:18:54.671Z,96753.72
2023-01-27T00:21:40.368Z,96750.06
2023-01-27T00:26:56.287Z,96748.16
2023-01-27T00:29:24.340Z,96751.38
2023-01-27T00:32:12.164Z,96748.25
2023-01-27T00:34:41.891Z,96744.06
2023-01-27T00:37:10.628Z,96750.41
2023-01-27T00:39:38.644Z,96749.81
2023-01-27T00:42:07.809Z,96748.19
2023-01-27T00:44:36.972Z,96743.94
2023-01-27T00:47:06.925Z,96745.91
2023-01-27T00:49:36.918Z,96746.88
2023-01-27T00:52:05.451Z,96740.59
2023-01-27T00:54:33.482Z,96746.09
2023-01-27T00:57:02.199Z,96753.06
2023-01-27T00:59:32.093Z,96744.97
2023-01-27T01:02:00.182Z,96749.28
2023-01-27T01:04:29.871Z,96759.06
2023-01-27T01:06:58.027Z,96750.97
2023-01-27T01:09:26.234Z,96750.00
2023-01-27T01:11:54.297Z,96758.31
2023-01-27T01:14:22.276Z,96752.91
2023-01-27T01:16:50.379Z,96752.75
2023-01-27T01:19:18.367Z,96753.81
2023-01-27T01:21:47.744Z,96752.84
2023-01-27T01:24:16.009Z,96758.31
2023-01-27T01:26:44.089Z,96756.44
2023-01-27T01:29:12.092Z,96758.19
2023-01-27T01:31:40.148Z,96759.91
2023-01-27T01:34:08.339Z,96756.94
2023-01-27T01:36:36.414Z,96757.06
2023-01-27T01:39:07.733Z,96761.13
2023-01-27T01:41:35.861Z,96749.97
2023-01-27T01:44:24.700Z,96747.47
2023-01-27T01:46:52.895Z,96748.53
2023-01-27T01:49:28.036Z,96743.06
2023-01-27T01:52:01.603Z,96742.31
2023-01-27T01:54:35.366Z,96736.38
2023-01-27T01:57:09.418Z,96736.44
2023-01-27T01:59:42.001Z,96737.75
2023-01-27T02:02:14.511Z,96735.81
2023-01-27T02:04:53.317Z,96735.22
2023-01-27T02:07:27.478Z,96730.22
2023-01-27T02:09:59.432Z,96727.97
2023-01-27T02:12:27.570Z,96723.00
2023-01-27T02:14:56.094Z,96720.28
2023-01-27T02:17:24.516Z,96728.84
2023-01-27T02:20:06.209Z,96726.06
2023-01-27T02:22:44.113Z,96725.72
2023-01-27T02:25:27.564Z,96721.59
2023-01-27T02:27:56.944Z,96724.50
2023-01-27T02:30:25.637Z,96716.94
2023-01-27T02:32:53.839Z,96720.81
2023-01-27T02:35:28.583Z,96725.78
2023-01-27T02:37:58.601Z,96726.59
2023-01-27T02:40:28.430Z,96724.41
2023-01-27T02:42:58.471Z,96722.88
2023-01-27T02:45:26.964Z,96729.44
2023-01-27T02:47:55.062Z,96726.56
2023-01-27T02:50:23.450Z,96717.78
2023-01-27T02:52:51.535Z,96706.97
2023-01-27T02:55:19.553Z,96710.06
2023-01-27T02:57:47.717Z,96714.06
2023-01-27T03:00:35.970Z,96716.66
2023-01-27T03:03:04.027Z,96724.94
2023-01-27T03:05:32.093Z,96719.94
2023-01-27T03:08:00.482Z,96727.97
2023-01-27T03:10:28.537Z,96723.81
2023-01-27T03:12:59.272Z,96722.75
2023-01-27T03:15:45.246Z,96722.38
2023-01-27T03:18:16.182Z,96720.16
2023-01-27T03:20:47.479Z,96722.16
2023-01-27T03:23:17.261Z,96717.78
2023-01-27T03:25:49.942Z,96727.06
2023-01-27T03:28:17.979Z,96716.66
2023-01-27T03:31:09.915Z,96724.00
2023-01-27T03:33:50.421Z,96729.66
2023-01-27T03:36:44.153Z,96730.06
2023-01-27T03:39:29.764Z,96724.25
2023-01-27T03:42:15.493Z,96710.50
2023-01-27T03:45:01.639Z,96714.06
2023-01-27T03:47:29.999Z,96720.66
2023-01-27T03:49:59.359Z,96725.97
2023-01-27T03:52:27.344Z,96731.44
2023-01-27T03:54:55.356Z,96743.50
2023-01-27T03:57:23.335Z,96738.47
2023-01-27T03:59:51.357Z,96742.22
2023-01-27T04:02:37.781Z,96745.78
2023-01-27T04:05:26.742Z,96743.50
2023-01-27T04:07:54.841Z,96747.66
2023-01-27T04:10:22.894Z,96744.22
2023-01-27T04:12:50.025Z,96744.09
2023-01-27T04:15:18.347Z,96744.66
2023-01-27T04:17:47.374Z,96742.75
2023-01-27T04:20:17.200Z,96735.03
2023-01-27T04:22:45.213Z,96734.84
2023-01-27T04:25:13.521Z,96739.25
2023-01-27T04:27:43.362Z,96741.69
2023-01-27T04:30:12.974Z,96745.22
2023-01-27T04:32:40.998Z,96752.97
2023-01-27T04:35:09.753Z,96750.69
2023-01-27T04:37:39.405Z,96755.88
2023-01-27T04:40:09.829Z,96753.19
2023-01-27T04:42:37.949Z,96752.22
2023-01-27T04:45:07.007Z,96758.19
2023-01-27T04:47:35.024Z,96753.28
2023-01-27T04:50:03.141Z,96750.13
2023-01-27T04:52:31.159Z,96745.22
2023-01-27T04:55:00.492Z,96743.66
2023-01-27T04:57:28.508Z,96748.06
2023-01-27T04:59:56.592Z,96754.19
2023-01-27T05:02:26.463Z,96756.22
2023-01-27T05:04:54.517Z,96745.94
2023-01-27T05:07:22.575Z,96744.56
2023-01-27T05:09:50.650Z,96745.06
2023-01-27T05:12:20.034Z,96748.19
2023-01-27T05:14:48.067Z,96751.63
2023-01-27T05:17:16.291Z,96751.13
2023-01-27T05:19:44.348Z,96745.59
2023-01-27T05:22:12.446Z,96745.75
2023-01-27T05:24:40.856Z,96745.50
2023-01-27T05:27:08.989Z,96750.84
2023-01-27T05:29:38.324Z,96740.84
2023-01-27T05:32:06.816Z,96745.16
2023-01-27T05:34:34.823Z,96750.06
2023-01-27T05:37:03.066Z,96741.97
2023-01-27T05:39:31.103Z,96743.00
2023-01-27T05:41:59.228Z,96758.78
2023-01-27T05:44:27.272Z,96772.09
2023-01-27T05:46:56.594Z,96775.53
2023-01-27T05:49:24.742Z,96769.16
2023-01-27T05:51:52.796Z,96773.38
2023-01-27T05:54:20.842Z,96784.09
2023-01-27T05:56:49.425Z,96782.97
2023-01-27T05:59:17.636Z,96784.00
2023-01-27T06:01:45.718Z,96799.81
2023-01-27T06:04:15.470Z,96789.84
2023-01-27T06:06:43.582Z,96786.28
2023-01-27T06:09:12.171Z,96789.78
2023-01-27T06:11:40.239Z,96787.97
2023-01-27T06:14:10.646Z,96778.56
2023-01-27T06:16:38.695Z,96774.31
2023-01-27T06:19:06.739Z,96771.84
2023-01-27T06:21:36.105Z,96777.03
2023-01-27T06:24:04.405Z,96775.81
2023-01-27T06:29:00.800Z,96778.22
2023-01-27T06:31:28.990Z,96770.78
2023-01-27T06:33:57.307Z,96782.50
2023-01-27T06:36:25.335Z,96776.94
2023-01-27T06:38:54.686Z,96789.44
2023-01-27T06:41:22.935Z,96789.97
2023-01-27T06:43:51.003Z,96786.78
2023-01-27T06:46:19.105Z,96792.84
2023-01-27T06:48:47.193Z,96801.41
2023-01-27T06:51:15.476Z,96795.94
2023-01-27T06:53:43.549Z,96801.84
2023-01-27T06:56:13.041Z,96803.09
2023-01-27T06:58:41.116Z,96806.94
2023-01-27T07:01:09.588Z,96816.91
2023-01-27T07:03:37.681Z,96816.81
2023-01-27T07:06:06.419Z,96816.50
2023-01-27T07:08:34.472Z,96820.38
2023-01-27T07:11:05.376Z,96831.16
2023-01-27T07:13:34.894Z,96841.13
2023-01-27T07:16:06.845Z,96833.19
2023-01-27T07:18:35.133Z,96837.59
2023-01-27T07:21:05.935Z,96845.59
2023-01-27T07:23:33.978Z,96846.78
2023-01-27T07:26:09.970Z,96850.03
2023-01-27T07:28:48.780Z,96859.00
2023-01-27T07:31:17.060Z,96852.91
2023-01-27T07:33:45.243Z,96853.75
2023-01-27T07:36:13.286Z,96858.94
2023-01-27T07:38:41.398Z,96859.16
2023-01-27T07:41:09.492Z,96852.13
2023-01-27T07:43:37.630Z,96863.47
2023-01-27T07:46:10.700Z,96868.72
2023-01-27T07:48:38.728Z,96865.94
2023-01-27T07:51:06.776Z,96860.59
2023-01-27T07:53:34.899Z,96869.88
2023-01-27T07:56:03.274Z,96866.91
2023-01-27T07:58:31.322Z,96869.59
2023-01-27T08:00:59.401Z,96876.25
2023-01-27T08:03:28.858Z,96868.03
2023-01-27T08:05:56.921Z,96875.75
2023-01-27T08:08:25.071Z,96877.53
2023-01-27T08:10:54.495Z,96880.88
2023-01-27T08:13:22.639Z,96879.09
2023-01-27T08:15:58.034Z,96875.69
2023-01-27T08:18:26.686Z,96875.81
2023-01-27T08:20:59.921Z,96879.31
2023-01-27T08:23:28.007Z,96889.91
2023-01-27T08:25:59.188Z,96870.28
2023-01-27T08:28:30.002Z,96876.78
2023-01-27T08:31:06.078Z,96882.34
2023-01-27T08:33:34.134Z,96890.13
2023-01-27T08:36:10.687Z,96884.22
2023-01-27T08:38:39.626Z,96891.25
2023-01-27T08:41:10.091Z,96889.69
2023-01-27T08:43:38.534Z,96896.22
2023-01-27T08:46:07.455Z,96906.63
2023-01-27T08:48:36.885Z,96901.47
2023-01-27T08:51:07.567Z,96902.34
2023-01-27T08:53:37.543Z,96903.06
2023-01-27T08:56:11.722Z,96913.09
2023-01-27T08:58:40.671Z,96908.06
2023-01-27T09:01:09.655Z,96904.81
2023-01-27T09:03:38.248Z,96912.63
2023-01-27T09:06:11.077Z,96904.19
2023-01-27T09:08:39.501Z,96916.91
2023-01-27T09:11:13.363Z,96909.00
2023-01-27T09:13:42.049Z,96911.81
2023-01-27T09:16:10.694Z,96918.13
2023-01-27T09:18:38.879Z,96916.03
2023-01-27T09:21:10.138Z,96908.81
2023-01-27T09:23:38.176Z,96899.38
2023-01-27T09:26:06.538Z,96899.84
2023-01-27T09:28:34.575Z,96901.81
2023-01-27T09:31:02.726Z,96908.00
2023-01-27T09:33:30.860Z,96902.78
2023-01-27T09:39:03.619Z,96911.34
2023-01-27T09:42:00.528Z,96925.09
2023-01-27T09:45:34.400Z,96927.09
2023-01-27T09:48:27.127Z,96909.84
2023-01-27T09:51:03.265Z,96912.59
2023-01-27T09:54:06.760Z,96904.09
2023-01-27T09:57:01.131Z,96913.06
2023-01-27T09:59:50.890Z,96913.50
2023-01-27T10:02:49.128Z,96911.66
2023-01-27T10:05:41.585Z,96919.94
2023-01-27T10:08:27.952Z,96923.94
2023-01-27T10:11:13.195Z,96913.34
2023-01-27T10:13:58.096Z,96919.59
2023-01-27T10:16:54.645Z,96923.66
2023-01-27T10:19:43.075Z,96924.78
2023-01-27T10:22:20.899Z,96914.06
2023-01-27T10:25:09.516Z,96908.44
2023-01-27T10:27:46.183Z,96916.63
2023-01-27T10:30:19.180Z,96923.03
2023-01-27T10:32:56.613Z,96912.31
2023-01-27T10:35:33.050Z,96908.38
2023-01-27T10:38:11.713Z,96916.59
2023-01-27T10:40:49.948Z,96907.53
2023-01-27T10:43:28.219Z,96903.47
2023-01-27T10:46:07.282Z,96907.81
2023-01-27T10:48:43.440Z,96920.69
2023-01-27T10:51:17.175Z,96918.69
2023-01-27T10:53:57.360Z,96930.69
2023-01-27T10:56:35.654Z,96929.50
2023-01-27T10:59:15.290Z,96925.13
2023-01-27T11:01:49.950Z,96921.06
2023-01-27T11:04:29.647Z,96914.53
2023-01-27T11:06:59.203Z,96910.19
2023-01-27T11:09:32.610Z,96920.31
2023-01-27T11:12:05.520Z,96922.25
2023-01-27T11:14:44.975Z,96920.22
2023-01-27T11:17:20.983Z,96923.91
2023-01-27T11:19:59.161Z,96931.00
2023-01-27T11:22:35.536Z,96922.31
2023-01-27T11:25:14.767Z,96919.50
2023-01-27T11:28:06.207Z,96917.50
2023-01-27T11:30:44.041Z,96914.38
2023-01-27T11:33:22.312Z,96914.75
2023-01-27T11:35:55.475Z,96909.72
2023-01-27T11:38:24.977Z,96910.59
2023-01-27T11:40:55.215Z,96917.84
2023-01-27T11:43:31.580Z,96925.50
2023-01-27T11:46:06.399Z,96901.19
2023-01-27T11:48:41.233Z,96908.81
2023-01-27T11:51:20.697Z,96906.28
2023-01-27T11:54:01.550Z,96895.59
2023-01-27T11:56:31.006Z,96884.63
2023-01-27T11:59:06.431Z,96889.53
2023-01-27T12:01:47.178Z,96886.25
2023-01-27T12:04:23.867Z,96887.59
2023-01-27T12:06:56.384Z,96892.22
2023-01-27T12:09:37.603Z,96889.41
2023-01-27T12:12:23.522Z,96884.97
2023-01-27T12:14:54.288Z,96887.78
2023-01-27T12:17:33.644Z,96884.09
2023-01-27T12:20:07.489Z,96884.78
2023-01-27T12:22:39.882Z,96880.00
2023-01-27T12:25:18.543Z,96869.16
2023-01-27T12:27:53.769Z,96873.78
2023-01-27T12:30:25.711Z,96876.28
2023-01-27T12:32:56.158Z,96874.84
2023-01-27T12:35:29.034Z,96882.84
2023-01-27T12:38:02.194Z,96866.03
2023-01-27T12:40:31.041Z,96863.81
2023-01-27T12:43:15.327Z,96870.06
2023-01-27T12:45:44.929Z,96872.25
2023-01-27T12:48:23.456Z,96882.69
2023-01-27T12:50:57.906Z,96878.31
2023-01-27T12:53:28.087Z,96873.38
2023-01-27T12:56:00.619Z,96874.69
2023-01-27T12:58:36.768Z,96875.22
2023-01-27T13:01:08.597Z,96879.44
2023-01-27T13:03:43.194Z,96876.13
2023-01-27T13:06:17.165Z,96888.00
2023-01-27T13:08:46.949Z,96882.44
2023-01-27T13:11:18.495Z,96878.97
2023-01-27T13:13:51.981Z,96886.75
2023-01-27T13:16:27.379Z,96888.63
2023-01-27T13:19:00.046Z,96898.91
2023-01-27T13:21:35.785Z,96886.06
2023-01-27T13:24:12.520Z,96883.19
2023-01-27T13:26:42.920Z,96895.75
2023-01-27T13:29:20.159Z,96885.94
2023-01-27T13:31:53.900Z,96890.78
2023-01-27T13:34:35.600Z,96877.38
2023-01-27T13:37:14.500Z,96878.72
2023-01-27T13:40:00.369Z,96887.94
2023-01-27T13:42:34.566Z,96889.69
2023-01-27T13:45:07.131Z,96894.88
2023-01-27T13:47:49.723Z,96892.13
2023-01-27T13:50:27.583Z,96897.00
2023-01-27T13:52:58.734Z,96898.81
2023-01-27T13:56:02.894Z,96909.28
2023-01-27T13:58:47.826Z,96898.41
2023-01-27T14:01:26.520Z,96904.56
2023-01-27T14:04:31.964Z,96899.44
2023-01-27T14:07:15.832Z,96906.59
2023-01-27T14:09:58.575Z,96913.81
2023-01-27T14:12:46.598Z,96916.41
2023-01-27T14:15:25.410Z,96912.59
2023-01-27T14:18:01.605Z,96910.94
2023-01-27T14:20:45.638Z,96914.97
2023-01-27T14:23:30.504Z,96914.66
2023-01-27T14:26:12.953Z,96920.06
2023-01-27T14:29:14.710Z,96923.66
2023-01-27T14:31:53.321Z,96926.97
2023-01-27T14:34:40.678Z,96923.78
2023-01-27T14:37:21.335Z,96933.63
2023-01-27T14:40:05.776Z,96931.91
2023-01-27T14:42:41.772Z,96926.38
2023-01-27T14:45:21.926Z,96922.66
2023-01-27T14:48:03.501Z,96924.94
2023-01-27T14:50:39.437Z,96921.72
2023-01-27T14:53:29.738Z,96909.84
2023-01-27T14:56:12.004Z,96930.34
2023-01-27T14:58:50.875Z,96933.00
2023-01-27T15:01:34.535Z,96931.88
2023-01-27T15:04:34.476Z,96924.19
2023-01-27T15:07:13.165Z,96926.22
2023-01-27T15:10:19.668Z,96917.22
2023-01-27T15:13:09.447Z,96923.88
2023-01-27T15:16:10.188Z,96913.94
2023-01-27T15:19:06.186Z,96908.75
2023-01-27T15:22:02.253Z,96920.34
2023-01-27T15:25:00.146Z,96922.59
2023-01-27T15:27:32.174Z,96926.19
2023-01-27T15:30:09.117Z,96942.31
2023-01-27T15:32:38.459Z,96934.41
2023-01-27T15:35:41.146Z,96944.25
2023-01-27T15:38:31.089Z,96933.88
2023-01-27T15:41:07.784Z,96941.03
2023-01-27T15:43:44.053Z,96932.94
2023-01-27T15:46:29.896Z,96927.91
2023-01-27T15:49:01.513Z,96937.00
2023-01-27T15:51:35.185Z,96936.84
2023-01-27T15:54:04.231Z,96939.22
2023-01-27T15:56:47.669Z,96932.47
2023-01-27T15:59:20.806Z,96930.88
2023-01-27T16:02:00.392Z,96936.97
2023-01-27T16:04:37.645Z,96952.75
2023-01-27T16:07:14.937Z,96959.00
2023-01-27T16:09:48.756Z,96968.47
2023-01-27T16:12:37.079Z,96975.09
2023-01-27T16:15:22.738Z,96982.25
2023-01-27T16:18:03.017Z,96989.75
2023-01-27T16:20:35.014Z,96986.69
2023-01-27T16:23:12.259Z,96986.03
2023-01-27T16:25:46.226Z,96988.34
2023-01-27T16:28:19.648Z,96990.16
2023-01-27T16:30:57.744Z,96990.31
2023-01-27T16:33:33.409Z,96990.22
2023-01-27T16:36:09.059Z,96988.97
2023-01-27T16:38:39.866Z,97001.13
2023-01-27T16:41:20.026Z,96992.81
2023-01-27T16:43:53.558Z,96996.78
2023-01-27T16:46:34.071Z,97001.28
2023-01-27T16:49:12.217Z,96992.00
2023-01-27T16:51:40.380Z,97002.31
2023-01-27T16:54:21.933Z,97001.88
2023-01-27T16:56:52.775Z,97000.28
2023-01-27T16:59:26.666Z,97003.09
2023-01-27T17:01:59.773Z,97003.84
2023-01-27T17:04:31.672Z,96998.75
2023-01-27T17:07:07.482Z,96998.03
2023-01-27T17:09:42.467Z,97007.91
2023-01-27T17:12:30.594Z,97007.25
2023-01-27T17:15:00.455Z,97005.75
2023-01-27T17:17:40.544Z,97004.41
2023-01-27T17:20:22.121Z,97006.84
2023-01-27T17:22:54.204Z,97012.06
2023-01-27T17:25:33.062Z,97016.44
2023-01-27T17:28:04.240Z,97015.97
2023-01-27T17:30:39.277Z,97020.50
2023-01-27T17:33:15.800Z,97017.03
2023-01-27T17:35:52.840Z,97017.31
2023-01-27T17:38:24.295Z,97016.13
2023-01-27T17:40:56.009Z,97026.78
2023-01-27T17:43:31.854Z,97024.44
2023-01-27T17:46:17.068Z,97023.84
2023-01-27T17:48:51.734Z,97023.06
2023-01-27T17:51:24.816Z,97025.66
2023-01-27T17:53:54.279Z,97023.69
2023-01-27T17:56:27.968Z,97024.81
2023-01-27T17:59:01.719Z,97028.69
2023-01-27T18:01:31.151Z,97031.50
2023-01-27T18:04:01.102Z,97038.81
2023-01-27T18:06:30.619Z,97028.97
2023-01-27T18:09:03.374Z,97035.66
2023-01-27T18:11:35.751Z,97041.22
2023-01-27T18:14:10.614Z,97042.69
2023-01-27T18:16:38.726Z,97032.97
2023-01-27T18:19:23.228Z,97035.97
2023-01-27T18:22:14.885Z,97033.38
2023-01-27T18:24:52.142Z,97039.25
2023-01-27T18:27:29.664Z,97035.06
2023-01-27T18:30:03.617Z,97032.44
2023-01-27T18:32:40.607Z,97036.72
2023-01-27T18:35:27.158Z,97039.50
2023-01-27T18:38:01.879Z,97043.72
2023-01-27T18:40:33.634Z,97048.63
2023-01-27T18:43:03.253Z,97043.09
2023-01-27T18:45:32.336Z,97047.81
2023-01-27T18:48:03.726Z,97046.34
2023-01-27T18:50:31.830Z,97052.22
2023-01-27T18:53:01.239Z,97047.00
2023-01-27T18:55:31.177Z,97047.34
2023-01-27T18:58:01.340Z,97051.13
2023-01-27T19:00:35.188Z,97043.44
2023-01-27T19:03:04.301Z,97039.72
2023-01-27T19:05:35.283Z,97048.94
2023-01-27T19:08:05.614Z,97042.75
2023-01-27T19:10:35.593Z,97046.19
2023-01-27T19:13:05.718Z,97043.94
2023-01-27T19:15:37.301Z,97045.78
2023-01-27T19:18:19.715Z,97043.63
2023-01-27T19:20:47.937Z,97044.47
2023-01-27T19:23:20.463Z,97048.53
2023-01-27T19:25:52.267Z,97048.53
2023-01-27T19:28:28.302Z,97052.41
2023-01-27T19:30:56.769Z,97055.97
2023-01-27T19:33:26.564Z,97068.03
2023-01-27T19:35:57.073Z,97061.28
2023-01-27T19:38:30.428Z,97057.72
2023-01-27T19:40:58.466Z,97059.00
2023-01-27T19:43:26.601Z,97054.59
2023-01-27T19:45:55.013Z,97057.56
2023-01-27T19:48:25.380Z,97053.16
2023-01-27T19:50:53.892Z,97058.22
2023-01-27T19:53:22.025Z,97064.75
2023-01-27T19:55:52.184Z,97061.84
2023-01-27T19:58:24.747Z,97065.56
2023-01-27T20:00:53.913Z,97064.44
2023-01-27T20:03:23.089Z,97066.38
2023-01-27T20:05:51.161Z,97066.56
2023-01-27T20:08:22.863Z,97075.97
2023-01-27T20:10:52.699Z,97070.78
2023-01-27T20:13:22.187Z,97078.59
2023-01-27T20:15:50.743Z,97072.06
2023-01-27T20:18:21.448Z,97071.56
2023-01-27T20:20:51.163Z,97082.34
2023-01-27T20:23:20.053Z,97079.06
2023-01-27T20:25:48.301Z,97084.09
2023-01-27T20:28:17.625Z,97085.56
2023-01-27T20:30:45.749Z,97075.44
2023-01-27T20:33:15.158Z,97075.16
2023-01-27T20:35:43.252Z,97078.22
2023-01-27T20:38:12.314Z,97084.91
2023-01-27T20:40:41.098Z,97078.31
2023-01-27T20:43:10.114Z,97083.19
2023-01-27T20:45:40.747Z,97081.69
2023-01-27T20:48:11.781Z,97086.03
2023-01-27T20:50:39.835Z,97087.50
2023-01-27T20:53:34.640Z,97092.72
2023-01-27T20:56:03.447Z,97097.09
2023-01-27T20:58:32.366Z,97089.78
2023-01-27T21:01:11.147Z,97088.50
2023-01-27T21:03:40.549Z,97092.91
2023-01-27T21:06:11.454Z,97101.63
2023-01-27T21:08:40.087Z,97098.09
2023-01-27T21:11:12.240Z,97097.19
2023-01-27T21:13:40.318Z,97093.53
2023-01-27T21:16:10.313Z,97096.31
2023-01-27T21:18:38.848Z,97101.22
2023-01-27T21:21:07.545Z,97113.03
2023-01-27T21:23:36.165Z,97104.78
2023-01-27T21:26:06.227Z,97107.75
2023-01-27T21:28:34.726Z,97105.75
2023-01-27T21:31:07.740Z,97111.25
2023-01-27T21:33:40.272Z,97103.59
2023-01-27T21:36:11.079Z,97103.59
2023-01-27T21:38:42.373Z,97106.00
2023-01-27T21:41:14.673Z,97104.41
2023-01-27T21:44:00.395Z,97106.56
2023-01-27T21:46:28.490Z,97104.38
2023-01-27T21:48:58.382Z,97090.44
2023-01-27T21:51:26.418Z,97090.41
2023-01-27T21:53:54.418Z,97089.41
2023-01-27T21:56:23.723Z,97083.53
2023-01-27T21:58:51.744Z,97094.22
2023-01-27T22:01:19.905Z,97083.59
2023-01-27T22:03:48.059Z,97086.94
2023-01-27T22:06:17.641Z,97097.81
2023-01-27T22:08:45.686Z,97095.63
2023-01-27T22:11:14.106Z,97092.50
2023-01-27T22:13:42.136Z,97094.56
2023-01-27T22:16:14.310Z,97089.31
2023-01-27T22:18:42.546Z,97091.06
2023-01-27T22:21:10.938Z,97083.53
2023-01-27T22:23:40.606Z,97078.72
2023-01-27T22:26:10.037Z,97088.16
2023-01-27T22:28:38.056Z,97087.63
2023-01-27T22:31:06.102Z,97085.59
2023-01-27T22:33:34.311Z,97092.59
2023-01-27T22:36:04.472Z,97096.66
2023-01-27T22:38:32.646Z,97094.69
2023-01-27T22:41:02.014Z,97098.31
2023-01-27T22:43:30.085Z,97103.94
2023-01-27T22:46:02.714Z,97103.28
2023-01-27T22:48:31.389Z,97098.16
2023-01-27T22:51:04.599Z,97101.19
2023-01-27T22:53:32.772Z,97102.03
2023-01-27T22:56:04.676Z,97104.69
2023-01-27T22:58:32.827Z,97098.72
2023-01-27T23:01:00.849Z,97091.88
2023-01-27T23:03:28.940Z,97089.78
2023-01-27T23:05:56.985Z,97089.97
2023-01-27T23:08:25.079Z,97083.88
2023-01-27T23:10:53.063Z,97091.28
2023-01-27T23:13:22.415Z,97091.00
2023-01-27T23:15:50.492Z,97094.88
2023-01-27T23:18:18.485Z,97094.28
2023-01-27T23:20:46.515Z,97094.56
2023-01-27T23:23:15.630Z,97086.78
2023-01-27T23:25:45.848Z,97087.06
2023-01-27T23:28:14.773Z,97081.56
2023-01-27T23:30:46.380Z,97081.31
2023-01-27T23:33:17.129Z,97090.28
2023-01-27T23:35:45.775Z,97085.53
2023-01-27T23:38:31.376Z,97097.13
2023-01-27T23:41:03.165Z,97094.03
2023-01-27T23:43:31.815Z,97095.81
2023-01-27T23:46:01.686Z,97105.91
2023-01-27T23:48:29.975Z,97103.75
2023-01-27T23:50:58.155Z,97089.63
2023-01-27T23:53:26.162Z,97094.97
2023-01-27T23:55:58.770Z,97092.09
2023-01-27T23:58:27.498Z,97091.72
